Time;durP1;ratioP1;P1;durP2;ratioP2;P2;SDS_P1;SDS_P2;PMS_P1;PMS_P2;Temp;Humidity;BMP_temperature;BMP_pressure;BME280_temperature;BME280_humidity;BME280_pressure;Samples;Min_cycle;Max_cycle;Signal;HPM_P1;HPM_P2
2021/09/22 00:02:06;;;;;;;10.40;5.50;;;;;;;10.46;77.38;102754.88;4995487;28;20030;-77
2021/09/22 00:04:33;;;;;;;7.75;4.43;;;;;;;10.41;77.83;102758.72;4995050;28;20033;-77
2021/09/22 00:06:59;;;;;;;8.75;4.47;;;;;;;10.41;77.46;102751.75;4995578;28;20030;-77
2021/09/22 00:09:24;;;;;;;10.85;5.43;;;;;;;10.41;77.62;102758.72;5017072;28;20033;-76
2021/09/22 00:11:50;;;;;;;10.73;4.88;;;;;;;10.41;77.63;102753.53;4997384;28;20084;-77
2021/09/22 00:14:15;;;;;;;9.68;5.30;;;;;;;10.37;77.94;102754.69;5001741;28;20065;-76
2021/09/22 00:16:40;;;;;;;9.13;4.88;;;;;;;10.36;77.66;102761.66;5001498;28;20025;-77
2021/09/22 00:19:06;;;;;;;10.00;4.95;;;;;;;10.35;77.58;102759.97;4993326;28;20091;-77
2021/09/22 00:21:32;;;;;;;10.80;4.40;;;;;;;10.36;77.48;102753.03;5004357;28;20044;-77
2021/09/22 00:23:57;;;;;;;11.55;5.78;;;;;;;10.36;77.47;102753.03;5007200;28;20044;-77
2021/09/22 00:26:23;;;;;;;7.63;4.82;;;;;;;10.34;77.45;102763.53;4994080;28;20064;-77
2021/09/22 00:28:48;;;;;;;8.70;4.80;;;;;;;10.32;77.10;102766.22;5014264;28;20034;-77
2021/09/22 00:31:16;;;;;;;10.98;4.93;;;;;;;10.26;77.68;102765.78;4999867;28;20089;-76
2021/09/22 00:33:41;;;;;;;9.23;5.40;;;;;;;10.22;77.59;102764.31;4994747;28;20034;-76
2021/09/22 00:36:06;;;;;;;7.78;4.90;;;;;;;10.18;77.80;102761.13;5017226;28;20529;-76
2021/09/22 00:38:32;;;;;;;8.15;5.22;;;;;;;10.16;78.18;102759.56;4991705;28;20029;-77
2021/09/22 00:40:58;;;;;;;8.68;4.82;;;;;;;10.15;78.23;102758.72;4995205;28;20410;-76
2021/09/22 00:43:23;;;;;;;8.23;4.68;;;;;;;10.13;78.03;102753.66;5015791;28;20029;-76
2021/09/22 00:45:50;;;;;;;7.75;4.90;;;;;;;10.07;78.12;102756.66;4997941;28;20080;-76
2021/09/22 00:48:15;;;;;;;10.43;5.13;;;;;;;9.99;78.20;102758.94;4987837;28;21834;-76
2021/09/22 00:50:49;;;;;;;11.18;5.55;;;;;;;9.93;78.32;102755.00;4977607;28;20064;-76
2021/09/22 00:53:16;;;;;;;8.10;4.38;;;;;;;9.87;77.92;102762.34;4973979;28;20417;-76
2021/09/22 00:55:43;;;;;;;7.60;4.45;;;;;;;9.82;78.24;102769.63;4998830;28;20501;-77
2021/09/22 00:58:10;;;;;;;9.25;4.97;;;;;;;9.75;78.28;102764.84;4971208;28;20068;-76
2021/09/22 01:00:38;;;;;;;10.20;5.68;;;;;;;9.69;78.38;102764.44;4983397;28;20029;-77
2021/09/22 01:03:06;;;;;;;7.47;4.60;;;;;;;9.63;78.38;102762.28;4971668;28;20111;-76
2021/09/22 01:05:32;;;;;;;6.95;4.07;;;;;;;9.57;78.71;102766.09;4991415;28;20513;-76
2021/09/22 01:07:58;;;;;;;8.32;4.30;;;;;;;9.55;78.60;102763.59;4986448;28;20030;-76
2021/09/22 01:10:24;;;;;;;7.88;4.47;;;;;;;9.51;78.50;102762.16;4996304;28;20412;-77
2021/09/22 01:12:50;;;;;;;7.68;4.53;;;;;;;9.50;78.82;102763.06;4986227;28;20453;-77
2021/09/22 01:15:28;;;;;;;7.97;4.22;;;;;;;9.55;78.18;102773.13;4990407;28;20038;-76
2021/09/22 01:17:55;;;;;;;6.97;4.55;;;;;;;9.53;78.26;102767.19;4988814;28;20049;-76
2021/09/22 01:20:20;;;;;;;9.93;4.75;;;;;;;9.55;78.38;102767.97;5001337;28;20048;-76
2021/09/22 01:22:46;;;;;;;8.48;4.57;;;;;;;9.54;78.23;102767.09;4968707;28;20026;-76
2021/09/22 01:25:13;;;;;;;8.27;4.85;;;;;;;9.50;78.31;102773.41;4995626;28;20034;-77
2021/09/22 01:27:55;;;;;;;10.50;5.13;;;;;;;9.51;78.41;102766.47;5000336;28;20033;-76
2021/09/22 01:30:22;;;;;;;6.97;4.40;;;;;;;9.49;78.44;102766.59;5007171;28;20160;-77
2021/09/22 01:32:53;;;;;;;9.77;5.15;;;;;;;9.48;78.84;102770.09;4978723;28;20545;-76
2021/09/22 01:35:22;;;;;;;11.10;5.60;;;;;;;9.49;78.52;102773.50;4975829;28;20112;-77
2021/09/22 01:38:04;;;;;;;11.23;5.78;;;;;;;9.51;78.75;102771.66;4990513;28;20030;-77
2021/09/22 01:40:55;;;;;;;20.73;6.72;;;;;;;9.49;78.92;102774.38;4996918;28;20124;-76
2021/09/22 01:43:21;;;;;;;9.43;5.78;;;;;;;9.49;79.02;102765.75;4988252;28;20048;-76
2021/09/22 01:45:49;;;;;;;9.63;5.57;;;;;;;9.49;78.89;102766.59;4993991;28;20045;-76
2021/09/22 01:48:15;;;;;;;11.02;5.88;;;;;;;9.45;78.97;102754.75;4981274;28;20036;-77
2021/09/22 01:50:43;;;;;;;12.93;5.97;;;;;;;9.44;78.89;102755.72;4981591;28;20410;-77
2021/09/22 01:53:09;;;;;;;12.13;6.00;;;;;;;9.46;78.88;102747.84;5014454;28;20038;-77
2021/09/22 01:55:35;;;;;;;10.27;6.00;;;;;;;9.42;79.00;102741.19;4981617;28;20095;-77
2021/09/22 01:58:08;;;;;;;14.65;6.45;;;;;;;9.40;78.94;102749.06;4982154;28;20037;-77
2021/09/22 02:00:48;;;;;;;13.35;7.30;;;;;;;9.37;78.97;102744.09;4983731;28;20069;-77
2021/09/22 02:03:24;;;;;;;13.15;7.38;;;;;;;9.32;79.18;102743.56;4992272;28;20033;-77
2021/09/22 02:05:57;;;;;;;13.93;7.47;;;;;;;9.29;79.39;102746.34;4992150;28;20088;-77
2021/09/22 02:08:23;;;;;;;14.85;7.10;;;;;;;9.28;79.60;102739.50;4980027;28;20045;-77
2021/09/22 02:10:56;;;;;;;11.20;7.00;;;;;;;9.27;79.48;102740.44;4981339;28;20514;-77
2021/09/22 02:13:22;;;;;;;11.10;6.10;;;;;;;9.26;79.48;102733.59;4987486;28;20038;-77
2021/09/22 02:15:48;;;;;;;11.60;6.63;;;;;;;9.25;79.14;102734.53;4996157;28;20025;-76
2021/09/22 02:18:32;;;;;;;12.32;7.15;;;;;;;9.25;78.79;102724.16;5010997;28;20202;-77
2021/09/22 02:20:58;;;;;;;8.27;5.45;;;;;;;9.23;79.21;102721.69;4987666;28;20128;-76
2021/09/22 02:23:27;;;;;;;11.52;6.43;;;;;;;9.23;79.11;102731.19;4977973;28;20037;-77
2021/09/22 02:25:57;;;;;;;12.65;6.43;;;;;;;9.21;78.79;102726.16;4985299;28;20038;-76
2021/09/22 02:28:24;;;;;;;10.35;6.20;;;;;;;9.21;78.67;102728.75;4981392;28;20037;-77
2021/09/22 02:30:49;;;;;;;11.52;6.10;;;;;;;9.15;78.75;102722.19;4995847;28;20521;-77
2021/09/22 02:33:15;;;;;;;7.97;5.10;;;;;;;9.13;78.91;102724.03;4998111;28;20029;-77
2021/09/22 02:35:41;;;;;;;9.88;5.90;;;;;;;9.13;78.84;102715.44;4987135;28;20034;-77
2021/09/22 02:38:29;;;;;;;10.68;5.63;;;;;;;9.13;78.84;102715.44;5010326;28;20045;-77
2021/09/22 02:40:57;;;;;;;12.98;5.93;;;;;;;9.11;78.36;102723.31;5000047;28;20033;-77
2021/09/22 02:43:24;;;;;;;12.15;6.18;;;;;;;9.10;78.34;102726.84;4978218;28;20433;-77
2021/09/22 02:45:51;;;;;;;7.80;5.50;;;;;;;9.06;78.60;102722.78;4992288;28;20026;-77
2021/09/22 02:48:18;;;;;;;9.13;5.72;;;;;;;8.99;78.68;102725.88;4975638;28;20030;-77
2021/09/22 02:50:45;;;;;;;12.25;6.60;;;;;;;8.94;79.07;102720.97;4976419;28;20033;-77
2021/09/22 02:53:12;;;;;;;13.07;6.03;;;;;;;8.91;79.31;102724.59;4973123;28;20030;-77
2021/09/22 02:55:38;;;;;;;10.30;5.47;;;;;;;8.92;79.39;102720.25;5004212;28;20547;-77
2021/09/22 02:58:03;;;;;;;9.93;6.50;;;;;;;8.90;79.20;102720.34;4974281;28;20025;-76
2021/09/22 03:00:31;;;;;;;9.95;6.30;;;;;;;8.88;79.25;102719.63;4988133;28;20033;-77
2021/09/22 03:02:58;;;;;;;13.80;6.50;;;;;;;8.86;79.36;102711.13;4988167;28;20038;-77
2021/09/22 03:05:23;;;;;;;10.57;5.97;;;;;;;8.83;79.27;102719.06;4992843;28;20406;-77
2021/09/22 03:07:49;;;;;;;10.13;6.00;;;;;;;8.76;79.26;102713.47;5009587;28;20125;-77
2021/09/22 03:10:15;;;;;;;8.23;5.60;;;;;;;8.72;79.33;102709.44;4988417;28;20495;-77
2021/09/22 03:12:41;;;;;;;11.88;6.05;;;;;;;8.71;79.13;102710.34;4976640;28;20097;-77
2021/09/22 03:15:07;;;;;;;11.75;6.63;;;;;;;8.70;78.92;102702.69;4998480;28;20489;-77
2021/09/22 03:17:33;;;;;;;11.00;5.63;;;;;;;8.64;79.10;102703.91;4977545;28;20486;-77
2021/09/22 03:19:58;;;;;;;11.63;6.10;;;;;;;8.57;78.93;102710.41;4981712;28;20033;-77
2021/09/22 03:22:24;;;;;;;11.15;6.60;;;;;;;8.50;79.35;102706.53;4993190;28;20355;-77
2021/09/22 03:25:22;;;;;;;8.55;5.47;;;;;;;8.41;79.38;102701.91;5002853;28;20505;-77
2021/09/22 03:27:48;;;;;;;11.02;5.38;;;;;;;8.35;79.95;102706.53;4995320;28;20062;-77
2021/09/22 03:30:17;;;;;;;11.55;5.13;;;;;;;8.34;79.71;102711.78;4976976;28;20037;-77
2021/09/22 03:32:51;;;;;;;12.02;5.80;;;;;;;8.35;79.90;102711.69;5002288;28;20026;-76
2021/09/22 03:35:17;;;;;;;15.30;6.55;;;;;;;8.37;79.61;102698.69;4977708;28;20613;-77
2021/09/22 03:37:43;;;;;;;9.30;5.63;;;;;;;8.38;79.51;102698.59;4997914;28;20022;-77
2021/09/22 03:40:10;;;;;;;10.18;5.45;;;;;;;8.40;79.51;102693.31;4996104;28;20040;-77
2021/09/22 03:42:36;;;;;;;14.82;7.03;;;;;;;8.37;79.64;102696.91;4996797;28;20394;-77
2021/09/22 03:45:05;;;;;;;12.68;6.20;;;;;;;8.30;79.58;102687.88;4987919;28;20144;-77
2021/09/22 03:47:31;;;;;;;8.50;5.30;;;;;;;8.24;79.65;102687.44;4989246;28;20068;-77
2021/09/22 03:49:57;;;;;;;9.32;5.55;;;;;;;8.19;79.90;102688.56;4994653;28;20077;-76
2021/09/22 03:52:33;;;;;;;10.05;5.40;;;;;;;8.18;79.80;102693.81;4974876;28;20038;-77
2021/09/22 03:54:59;;;;;;;14.10;6.70;;;;;;;8.16;79.82;102696.50;4972749;28;20073;-77
2021/09/22 03:57:24;;;;;;;10.20;5.82;;;;;;;8.13;80.16;102693.25;5011563;28;20027;-77
2021/09/22 03:59:50;;;;;;;12.00;6.18;;;;;;;8.09;80.06;102692.63;4991827;28;20564;-76
2021/09/22 04:02:16;;;;;;;11.50;5.88;;;;;;;8.05;80.21;102693.72;4977476;28;20116;-77
2021/09/22 04:04:42;;;;;;;11.13;6.38;;;;;;;8.04;80.21;102691.22;4995875;28;20482;-77
2021/09/22 04:07:07;;;;;;;12.27;6.07;;;;;;;8.05;80.20;102700.66;5000847;28;20030;-76
2021/09/22 04:09:33;;;;;;;13.82;6.60;;;;;;;8.02;80.30;102703.41;4996236;28;20026;-77
2021/09/22 04:11:59;;;;;;;9.82;5.93;;;;;;;8.01;80.65;102704.34;4996711;28;20450;-76
2021/09/22 04:14:24;;;;;;;11.40;6.50;;;;;;;8.00;80.46;102700.91;4994194;28;20045;-77
2021/09/22 04:16:50;;;;;;;12.25;6.88;;;;;;;7.97;80.42;102696.78;4990968;28;20034;-77
2021/09/22 04:19:15;;;;;;;10.65;6.60;;;;;;;7.96;80.58;102707.19;4995065;28;20030;-77
2021/09/22 04:21:41;;;;;;;12.77;7.18;;;;;;;7.95;80.58;102710.72;4991222;28;20490;-77
2021/09/22 04:24:09;;;;;;;11.25;7.75;;;;;;;7.92;80.62;102713.47;5001864;28;20033;-77
2021/09/22 04:26:36;;;;;;;11.70;6.63;;;;;;;7.89;80.60;102706.75;5002499;28;20038;-77
2021/09/22 04:29:09;;;;;;;11.27;6.15;;;;;;;7.88;80.58;102712.81;4995763;28;20090;-76
2021/09/22 04:31:53;;;;;;;14.18;7.50;;;;;;;7.83;80.73;102717.44;5007695;28;20044;-77
2021/09/22 04:34:37;;;;;;;13.88;6.88;;;;;;;7.81;80.53;102727.03;4995012;28;20095;-76
2021/09/22 04:37:22;;;;;;;12.57;7.18;;;;;;;7.78;80.69;102720.28;5008501;28;20111;-77
2021/09/22 04:40:16;;;;;;;13.52;7.20;;;;;;;7.73;81.03;102724.06;4963866;28;20081;-77
2021/09/22 04:43:17;;;;;;;14.85;6.88;;;;;;;7.68;80.95;102721.75;4913122;29;20043;-77
2021/09/22 04:46:02;;;;;;;12.23;6.68;;;;;;;7.68;80.86;102723.50;4995366;28;20064;-77
2021/09/22 04:48:46;;;;;;;10.75;6.93;;;;;;;7.64;81.05;102729.78;5011693;28;20053;-77
2021/09/22 04:51:29;;;;;;;12.73;7.13;;;;;;;7.62;80.96;102729.03;4999638;28;20091;-77
2021/09/22 04:54:13;;;;;;;11.50;6.78;;;;;;;7.59;80.92;102728.28;5022089;28;20076;-77
2021/09/22 04:56:57;;;;;;;13.18;7.55;;;;;;;7.59;81.18;102725.72;5015607;28;20110;-77
2021/09/22 04:59:41;;;;;;;12.88;7.20;;;;;;;7.57;81.04;102732.72;5013850;28;20064;-77
2021/09/22 05:02:25;;;;;;;13.77;6.72;;;;;;;7.58;81.26;102731.78;4995627;28;20048;-77
2021/09/22 05:05:09;;;;;;;15.07;7.13;;;;;;;7.61;81.16;102730.78;5013568;28;20516;-77
2021/09/22 05:07:54;;;;;;;19.17;8.30;;;;;;;7.62;80.94;102729.84;5014613;28;20084;-77
2021/09/22 05:10:38;;;;;;;14.40;6.95;;;;;;;7.57;81.14;102727.56;4993146;28;20052;-77
2021/09/22 05:13:23;;;;;;;13.77;6.72;;;;;;;7.54;81.16;102729.47;5016121;28;20560;-77
2021/09/22 05:16:07;;;;;;;12.02;6.68;;;;;;;7.51;81.27;102730.47;5001369;28;20060;-77
2021/09/22 05:18:51;;;;;;;10.20;5.95;;;;;;;7.51;81.28;102737.41;4995189;28;20044;-77
2021/09/22 05:21:35;;;;;;;14.63;7.43;;;;;;;7.49;81.21;102737.47;5007185;28;20087;-76
2021/09/22 05:24:19;;;;;;;10.30;6.18;;;;;;;7.46;81.31;102753.16;5013463;28;20083;-77
2021/09/22 05:27:03;;;;;;;13.88;7.28;;;;;;;7.45;81.33;102753.25;5003761;28;20046;-77
2021/09/22 05:29:47;;;;;;;11.23;6.32;;;;;;;7.42;81.57;102749.06;5002208;28;20068;-77
2021/09/22 05:32:35;;;;;;;14.30;7.63;;;;;;;7.40;81.70;102750.91;4983870;28;20683;-77
2021/09/22 05:35:25;;;;;;;10.45;6.38;;;;;;;7.37;81.77;102748.53;4984377;28;20041;-77
2021/09/22 05:38:10;;;;;;;10.20;7.18;;;;;;;7.36;81.78;102752.84;4996932;28;20497;-77
2021/09/22 05:40:54;;;;;;;10.85;6.25;;;;;;;7.34;81.83;102754.66;4995348;28;20076;-77
2021/09/22 05:43:37;;;;;;;11.40;6.75;;;;;;;7.35;81.83;102752.94;4996759;28;20100;-77
2021/09/22 05:46:21;;;;;;;10.00;6.38;;;;;;;7.39;81.86;102759.59;4998830;28;20183;-77
2021/09/22 05:49:05;;;;;;;11.73;6.90;;;;;;;7.43;81.72;102757.66;4992360;28;20040;-77
2021/09/22 05:51:50;;;;;;;10.52;6.22;;;;;;;7.50;81.73;102758.97;5004222;28;20049;-77
2021/09/22 05:54:34;;;;;;;12.65;6.45;;;;;;;7.54;81.27;102755.31;5015356;28;20084;-77
2021/09/22 05:57:18;;;;;;;12.30;7.28;;;;;;;7.55;81.54;102757.81;5000410;28;20057;-77
2021/09/22 06:00:04;;;;;;;13.93;8.48;;;;;;;7.56;82.04;102761.19;5013182;28;20176;-77
2021/09/22 06:02:39;;;;;;;16.88;8.48;;;;;;;7.56;82.30;102759.44;4974233;28;20034;-77
2021/09/22 06:05:24;;;;;;;13.20;8.02;;;;;;;7.63;81.91;102761.66;4990172;28;20045;-77
2021/09/22 06:08:08;;;;;;;14.02;7.82;;;;;;;7.68;81.79;102769.97;5008742;28;20103;-77
2021/09/22 06:11:03;;;;;;;16.67;8.13;;;;;;;7.74;82.02;102761.88;4994512;28;20076;-77
2021/09/22 06:13:55;;;;;;;12.13;7.70;;;;;;;7.74;82.18;102764.44;5001687;28;20045;-76
2021/09/22 06:16:22;;;;;;;15.65;8.35;;;;;;;7.76;82.53;102767.78;4990127;28;20120;-77
2021/09/22 06:18:48;;;;;;;16.27;7.43;;;;;;;7.80;82.54;102771.88;5006456;28;20084;-77
2021/09/22 06:21:15;;;;;;;17.95;9.48;;;;;;;7.87;82.50;102778.31;4975340;28;20033;-78
2021/09/22 06:23:41;;;;;;;15.35;8.38;;;;;;;7.94;82.71;102778.78;4989276;28;20041;-77
2021/09/22 06:26:07;;;;;;;15.95;10.15;;;;;;;8.01;82.65;102787.03;4978168;28;20064;-78
2021/09/22 06:28:33;;;;;;;26.05;11.88;;;;;;;8.09;82.51;102787.41;5002557;28;20083;-78
2021/09/22 06:30:59;;;;;;;14.57;9.40;;;;;;;8.15;82.72;102785.25;4989864;28;20042;-78
2021/09/22 06:33:24;;;;;;;20.92;10.63;;;;;;;8.25;82.51;102782.97;4990801;28;20442;-78
2021/09/22 06:35:59;;;;;;;20.55;10.32;;;;;;;8.41;82.39;102787.22;4981505;28;20039;-78
2021/09/22 06:38:26;;;;;;;20.65;10.25;;;;;;;8.63;81.92;102776.44;5004518;28;20032;-78
2021/09/22 06:40:57;;;;;;;19.00;10.50;;;;;;;8.84;81.46;102789.78;4986437;28;20090;-78
2021/09/22 06:43:23;;;;;;;18.52;11.50;;;;;;;9.13;81.15;102780.97;4997200;28;20033;-77
2021/09/22 06:45:49;;;;;;;23.88;12.82;;;;;;;9.42;80.98;102785.19;5019330;28;20030;-77
2021/09/22 06:48:16;;;;;;;26.02;12.80;;;;;;;9.56;80.73;102779.97;4997091;28;20044;-78
2021/09/22 06:50:43;;;;;;;23.13;12.52;;;;;;;9.63;80.87;102786.41;5014720;28;20073;-78
2021/09/22 06:53:08;;;;;;;24.73;14.10;;;;;;;9.82;81.41;102782.59;4994280;28;20040;-76
2021/09/22 06:55:34;;;;;;;22.17;12.65;;;;;;;10.14;80.53;102781.22;4996974;28;20037;-78
2021/09/22 06:58:01;;;;;;;22.17;12.40;;;;;;;10.63;78.87;102777.03;5004320;28;20042;-77
2021/09/22 07:00:27;;;;;;;23.65;12.48;;;;;;;10.98;77.31;102776.31;4975650;28;20033;-77
2021/09/22 07:02:52;;;;;;;24.83;12.75;;;;;;;11.13;76.80;102769.13;4996936;28;20045;-77
2021/09/22 07:05:18;;;;;;;26.33;13.80;;;;;;;11.27;76.70;102773.34;4994403;28;20048;-77
2021/09/22 07:07:46;;;;;;;21.83;13.40;;;;;;;11.58;76.42;102774.47;4991115;28;20049;-77
2021/09/22 07:10:13;;;;;;;37.75;14.93;;;;;;;11.97;74.50;102766.44;5011627;28;20029;-76
2021/09/22 07:12:39;;;;;;;31.02;14.02;;;;;;;12.46;72.51;102773.84;4994416;28;20049;-76
2021/09/22 07:15:05;;;;;;;27.75;12.00;;;;;;;12.78;71.73;102772.28;5012410;28;20026;-76
2021/09/22 07:17:32;;;;;;;30.05;12.30;;;;;;;13.03;70.51;102769.34;4994602;28;20136;-76
2021/09/22 07:19:57;;;;;;;24.08;12.05;;;;;;;13.08;70.28;102762.94;4993827;28;20040;-76
2021/09/22 07:22:23;;;;;;;28.10;11.73;;;;;;;13.23;69.65;102772.09;4998916;28;20042;-76
2021/09/22 07:24:49;;;;;;;26.98;12.80;;;;;;;13.50;68.51;102773.41;4995652;28;20042;-76
2021/09/22 07:27:15;;;;;;;23.83;12.00;;;;;;;13.82;67.62;102766.34;5012513;28;20056;-77
2021/09/22 07:29:41;;;;;;;26.42;12.45;;;;;;;13.85;67.68;102772.25;4996377;28;20045;-77
2021/09/22 07:32:07;;;;;;;25.48;11.90;;;;;;;14.07;67.42;102777.31;4991546;28;20049;-77
2021/09/22 07:34:36;;;;;;;24.60;11.82;;;;;;;14.14;66.56;102781.03;4996798;28;20052;-77
2021/09/22 07:37:07;;;;;;;23.70;12.32;;;;;;;14.30;66.18;102774.50;5009049;28;20481;-76
2021/09/22 07:39:34;;;;;;;22.80;12.13;;;;;;;14.41;66.16;102785.66;5007171;28;20045;-77
2021/09/22 07:42:00;;;;;;;21.83;11.27;;;;;;;14.76;64.43;102773.94;5011949;28;20037;-78
2021/09/22 07:44:26;;;;;;;27.17;12.10;;;;;;;14.84;64.09;102768.03;4995517;28;20053;-78
2021/09/22 07:46:51;;;;;;;26.40;10.85;;;;;;;14.79;64.59;102768.44;4976350;28;20064;-77
2021/09/22 07:49:17;;;;;;;32.25;12.05;;;;;;;14.87;63.74;102773.00;4991911;28;20060;-77
2021/09/22 07:51:42;;;;;;;21.05;11.20;;;;;;;14.97;63.73;102766.00;4988774;28;20061;-78
2021/09/22 07:54:08;;;;;;;24.63;11.25;;;;;;;14.93;63.66;102772.44;5006085;28;20442;-77
2021/09/22 07:56:33;;;;;;;27.00;12.07;;;;;;;14.90;64.60;102770.13;5008501;28;20056;-78
2021/09/22 07:58:59;;;;;;;25.98;13.65;;;;;;;14.82;64.59;102769.94;4993920;28;20034;-77
2021/09/22 08:01:24;;;;;;;30.00;13.52;;;;;;;14.95;64.37;102767.06;4991761;28;20583;-78
2021/09/22 08:03:50;;;;;;;23.48;11.85;;;;;;;15.16;63.13;102766.94;5008184;28;20025;-77
2021/09/22 08:06:15;;;;;;;21.90;12.57;;;;;;;15.36;62.41;102773.78;4997267;28;20099;-77
2021/09/22 08:08:41;;;;;;;28.30;12.98;;;;;;;15.56;61.56;102779.81;4990640;28;20034;-78
2021/09/22 08:11:06;;;;;;;25.08;12.45;;;;;;;15.54;62.14;102770.47;4990331;28;20037;-78
2021/09/22 08:13:32;;;;;;;25.85;13.52;;;;;;;15.59;62.34;102773.47;4989018;28;20044;-78
2021/09/22 08:15:58;;;;;;;26.30;12.85;;;;;;;15.57;62.81;102776.22;4989215;28;20033;-78
2021/09/22 08:18:23;;;;;;;30.05;13.07;;;;;;;15.49;62.37;102773.50;4991157;28;20095;-77
2021/09/22 08:20:49;;;;;;;31.02;13.15;;;;;;;15.67;62.85;102781.47;4977288;28;20026;-78
2021/09/22 08:23:14;;;;;;;31.58;13.75;;;;;;;15.85;61.30;102775.50;5009791;28;20482;-78
2021/09/22 08:25:40;;;;;;;21.13;12.35;;;;;;;15.95;62.27;102773.66;4989001;28;20125;-78
2021/09/22 08:28:08;;;;;;;26.55;13.45;;;;;;;16.28;60.61;102774.09;4991710;28;20034;-78
2021/09/22 08:30:34;;;;;;;24.77;12.05;;;;;;;16.62;60.36;102769.06;4975270;28;20017;-78
2021/09/22 08:32:59;;;;;;;31.63;11.98;;;;;;;16.78;59.21;102760.53;4969325;28;20459;-78
2021/09/22 08:35:25;;;;;;;24.52;14.20;;;;;;;16.87;59.02;102759.66;4991965;28;20389;-78
2021/09/22 08:37:50;;;;;;;25.92;13.10;;;;;;;17.03;58.19;102753.75;5015626;28;20549;-78
2021/09/22 08:40:16;;;;;;;25.40;12.40;;;;;;;16.99;58.33;102751.56;5006774;28;20025;-79
2021/09/22 08:42:42;;;;;;;25.77;13.02;;;;;;;16.94;58.63;102754.66;5007825;28;20034;-79
2021/09/22 08:45:11;;;;;;;20.55;11.05;;;;;;;16.84;59.31;102749.50;4982506;28;20444;-79
2021/09/22 08:47:36;;;;;;;22.77;13.00;;;;;;;16.72;59.07;102754.09;5012336;28;20470;-78
2021/09/22 08:50:03;;;;;;;28.10;13.10;;;;;;;16.63;58.79;102747.16;5004108;28;20048;-79
2021/09/22 08:52:29;;;;;;;34.28;13.10;;;;;;;16.73;58.78;102757.56;4997321;28;20049;-78
2021/09/22 08:54:54;;;;;;;35.97;13.93;;;;;;;16.77;58.59;102753.66;5005479;28;20033;-77
2021/09/22 08:57:20;;;;;;;31.58;13.52;;;;;;;16.92;58.50;102757.41;5007463;28;20491;-77
2021/09/22 08:59:45;;;;;;;28.52;12.85;;;;;;;17.15;57.96;102756.94;4999267;28;20026;-79
2021/09/22 09:02:13;;;;;;;28.70;12.57;;;;;;;17.47;56.46;102747.66;4992685;28;20029;-77
2021/09/22 09:04:42;;;;;;;25.63;12.25;;;;;;;17.61;55.99;102747.09;5011161;28;20037;-79
2021/09/22 09:07:08;;;;;;;19.80;12.32;;;;;;;17.90;56.81;102738.91;4997008;28;20113;-79
2021/09/22 09:09:42;;;;;;;28.95;13.18;;;;;;;17.95;55.11;102734.97;4997702;28;20033;-78
2021/09/22 09:12:19;;;;;;;26.48;12.90;;;;;;;17.75;56.16;102740.44;5014487;28;20502;-80
2021/09/22 09:14:53;;;;;;;24.27;12.35;;;;;;;17.70;56.52;102747.97;4994145;28;20037;-76
2021/09/22 09:17:50;;;;;;;25.92;13.90;;;;;;;17.73;55.21;102741.59;4995245;28;20046;-79
2021/09/22 09:20:21;;;;;;;26.23;12.98;;;;;;;17.65;56.50;102742.34;4990205;28;20034;-79
2021/09/22 09:23:01;;;;;;;29.98;13.02;;;;;;;17.88;56.27;102740.06;4983302;28;20030;-79
2021/09/22 09:25:28;;;;;;;29.90;13.35;;;;;;;17.94;56.00;102730.72;4977693;28;20088;-79
2021/09/22 09:27:54;;;;;;;26.88;13.48;;;;;;;18.04;56.10;102734.84;4978409;28;20116;-79
2021/09/22 09:30:23;;;;;;;20.42;11.65;;;;;;;18.10;56.10;102736.00;4990764;28;20140;-79
2021/09/22 09:32:49;;;;;;;26.88;13.95;;;;;;;17.75;56.88;102737.00;4993911;28;20047;-79
2021/09/22 09:35:18;;;;;;;28.15;13.30;;;;;;;17.70;56.00;102725.16;4991607;28;20034;-80
2021/09/22 09:37:55;;;;;;;22.52;12.55;;;;;;;17.94;56.06;102726.28;4973977;28;20466;-78
2021/09/22 09:40:35;;;;;;;23.67;10.98;;;;;;;18.06;55.96;102717.16;5010325;28;20160;-79
2021/09/22 09:43:09;;;;;;;25.17;12.27;;;;;;;18.12;54.45;102717.50;4981301;28;20037;-76
2021/09/22 09:45:41;;;;;;;24.15;11.90;;;;;;;18.31;55.44;102719.00;4989989;28;20782;-79
2021/09/22 09:48:18;;;;;;;26.17;12.02;;;;;;;18.46;53.89;102710.34;4991301;28;20066;-79
2021/09/22 09:50:48;;;;;;;22.67;11.60;;;;;;;18.61;55.57;102717.56;4999054;28;20507;-80
2021/09/22 09:53:34;;;;;;;28.50;13.43;;;;;;;18.43;52.88;102715.91;4984881;28;20029;-78
2021/09/22 09:56:00;;;;;;;24.02;12.40;;;;;;;18.40;54.42;102718.88;4985681;28;20072;-78
2021/09/22 09:58:29;;;;;;;23.65;11.35;;;;;;;18.59;54.02;102714.28;5014342;28;20550;-79
2021/09/22 10:00:56;;;;;;;22.85;11.45;;;;;;;18.67;51.64;102714.31;4994328;28;20036;-77
2021/09/22 10:03:23;;;;;;;22.60;11.45;;;;;;;18.76;52.51;102705.47;5005353;28;20042;-80
2021/09/22 10:05:51;;;;;;;28.58;12.32;;;;;;;18.65;53.44;102711.84;4989919;28;20556;-82
2021/09/22 10:08:20;;;;;;;23.48;12.27;;;;;;;18.67;51.19;102703.81;4990954;28;20026;-81
2021/09/22 10:10:49;;;;;;;20.30;11.73;;;;;;;18.68;52.46;102701.03;4997498;28;20037;-79
2021/09/22 10:13:16;;;;;;;24.30;12.27;;;;;;;18.79;50.79;102699.84;5010867;28;20045;-78
2021/09/22 10:15:43;;;;;;;33.65;11.98;;;;;;;18.79;51.53;102696.41;4999155;28;20486;-80
2021/09/22 10:18:10;;;;;;;23.25;11.25;;;;;;;18.76;52.39;102689.69;5000537;28;20045;-80
2021/09/22 10:20:41;;;;;;;19.30;11.48;;;;;;;18.88;52.68;102689.38;5017204;28;20045;-81
2021/09/22 10:23:08;;;;;;;32.80;11.82;;;;;;;18.82;54.02;102696.94;4994290;28;20461;-79
2021/09/22 10:25:35;;;;;;;28.23;11.52;;;;;;;19.07;50.65;102696.91;4979282;28;20037;-78
2021/09/22 10:28:01;;;;;;;22.65;13.00;;;;;;;19.14;49.71;102689.19;4979553;28;20067;-79
2021/09/22 10:30:40;;;;;;;23.67;12.82;;;;;;;18.98;50.30;102682.94;4986936;28;20487;-86
2021/09/22 10:33:22;;;;;;;26.52;11.65;;;;;;;18.80;51.06;102677.06;4998874;28;20034;-80
2021/09/22 10:36:00;;;;;;;25.83;11.52;;;;;;;18.82;52.29;102680.34;4990371;28;20443;-81
2021/09/22 10:38:28;;;;;;;19.52;12.02;;;;;;;19.06;50.62;102674.22;5010465;28;20160;-81
2021/09/22 10:41:01;;;;;;;20.55;11.18;;;;;;;19.06;51.28;102674.22;4981094;28;20413;-81
2021/09/22 10:43:41;;;;;;;23.48;11.77;;;;;;;19.49;48.20;102668.72;5016569;28;20037;-81
2021/09/22 10:46:07;;;;;;;20.65;11.05;;;;;;;19.36;51.01;102670.03;5008991;28;20109;-82
2021/09/22 10:48:34;;;;;;;26.02;11.50;;;;;;;19.64;52.58;102662.53;4977888;28;20724;-82
2021/09/22 10:51:04;;;;;;;22.83;11.85;;;;;;;19.51;50.58;102654.38;4996232;28;20076;-82
2021/09/22 10:53:30;;;;;;;19.88;11.02;;;;;;;19.75;49.77;102650.84;5004458;28;20041;-82
2021/09/22 10:56:16;;;;;;;19.65;9.95;;;;;;;19.57;48.30;102651.09;5003777;28;20037;-80
2021/09/22 10:58:52;;;;;;;17.92;10.77;;;;;;;19.48;48.71;102646.00;4996896;28;20038;-82
2021/09/22 11:01:48;;;;;;;18.08;9.40;;;;;;;19.27;50.36;102650.06;4995422;28;20068;-81
2021/09/22 11:04:14;;;;;;;19.25;9.98;;;;;;;19.61;50.30;102639.22;4995440;28;20532;-83
2021/09/22 11:06:51;;;;;;;18.45;11.95;;;;;;;19.55;48.70;102642.56;5007957;28;20017;-82
2021/09/22 11:09:17;;;;;;;21.35;11.70;;;;;;;19.83;47.28;102639.47;4986409;28;20087;-79
2021/09/22 11:12:01;;;;;;;18.50;9.75;;;;;;;19.76;46.44;102633.25;5007904;28;20037;-81
2021/09/22 11:14:33;;;;;;;20.20;10.73;;;;;;;19.70;46.84;102628.66;5017685;28;20449;-81
2021/09/22 11:17:04;;;;;;;18.52;9.82;;;;;;;19.83;46.51;102635.03;4993150;28;20046;-83
2021/09/22 11:19:31;;;;;;;21.23;10.68;;;;;;;19.68;47.28;102620.13;4989369;28;20046;-79
2021/09/22 11:21:59;;;;;;;15.82;9.10;;;;;;;19.88;46.72;102629.25;5001027;28;20046;-81
2021/09/22 11:24:28;;;;;;;18.92;9.25;;;;;;;19.78;46.18;102628.66;4996792;28;20140;-80
2021/09/22 11:26:59;;;;;;;18.40;9.65;;;;;;;19.74;46.77;102628.19;5024739;28;20052;-81
2021/09/22 11:29:39;;;;;;;14.38;8.00;;;;;;;20.02;46.36;102625.03;4997144;28;20096;-80
2021/09/22 11:32:22;;;;;;;11.32;7.20;;;;;;;19.90;47.38;102618.56;5007893;28;20033;-79
2021/09/22 11:34:48;;;;;;;14.50;6.77;;;;;;;20.00;45.78;102616.50;4999134;28;20034;-81
2021/09/22 11:37:14;;;;;;;15.07;7.45;;;;;;;19.94;45.01;102604.84;4999308;28;20064;-82